Urania — PAFG — position and weather

sailwx.info

Track history (hours):
 
Tides and Currents Weather Stations Pressure Air Temp Water Temp Dewpoint Dewpoint Depression Visibility Wind Speed Wind Dir Waves Ship Positions

Urania (Netherlands)

Flagship of the Royal Netherlands Naval College.

Last reported at 2017-Nov-03 16:30 UTC. Time now 2017-Dec-16 01:51 UTC.
Position N 51°43' E 004°48'.
Warning: this ship's position is 42 days out of date.

Length 27 m; draft 2.6 m.

Type: Sailing vessel. MMSI: 245804000.

Date/timePositionNaut miles runAvg speedWind from/ knotsBaromVisibWave heightAir tempDewpointWater temp
2017-Nov-03 16:30N 51°43' E 004°48'0 0.2
2017-Nov-03 16:01N 51°43' E 004°48'4 7.6
2017-Nov-03 15:30N 51°43' E 004°42'3 5.6
2017-Nov-03 15:00N 51°46' E 004°44'4 7.3
2017-Nov-03 14:31N 51°48' E 004°49'2 3.7
2017-Nov-03 14:00N 51°49' E 004°51'4 7.0
2017-Nov-03 13:30N 51°49' E 004°46'2 3.6
2017-Nov-03 13:00N 51°49' E 004°43'2 3.1
2017-Nov-03 12:31N 51°49' E 004°40'1 2.9
2017-Nov-03 12:00N 51°48' E 004°39'3 6.1
2017-Nov-03 11:30N 51°49' E 004°34'3 5.3
2017-Nov-03 11:00N 51°50' E 004°30'3 6.0
2017-Nov-03 10:30N 51°51' E 004°25'3 5.8
2017-Nov-03 10:00N 51°51' E 004°21'3 5.6
2017-Nov-03 09:30N 51°54' E 004°18'3 5.8
2017-Nov-03 09:00N 51°55' E 004°14'3 6.0
2017-Nov-03 08:30N 51°57' E 004°10'3 5.7
2017-Nov-03 08:00N 51°59' E 004°06'3 5.3
2017-Nov-03 07:30N 52°00' E 004°03'4 8.5
2017-Nov-03 07:00N 52°03' E 004°08'4 8.3
2017-Nov-03 06:30N 52°06' E 004°13'2 4.1
2017-Nov-03 06:00N 52°06' E 004°16'0 0.0
2017-Nov-03 05:25N 52°06' E 004°16'0 0.0
2017-Nov-03 04:46N 52°06' E 004°16'0 0.0
2017-Nov-03 04:28N 52°06' E 004°16'0 0.0
2017-Nov-03 03:58N 52°06' E 004°16'0 0.0
2017-Nov-03 03:28N 52°06' E 004°16'0 0.0
2017-Nov-03 02:55N 52°06' E 004°16'0 0.0
2017-Nov-03 02:28N 52°06' E 004°16'0 0.0
2017-Nov-03 01:55N 52°06' E 004°16'0 0.0
2017-Nov-03 01:25N 52°06' E 004°16'0 0.0
2017-Nov-03 00:58N 52°06' E 004°16'0 0.0
2017-Nov-03 00:25N 52°06' E 004°16'0 0.0
2017-Nov-02 23:55N 52°06' E 004°16'0 0.0
2017-Nov-02 23:28N 52°06' E 004°16'0 0.0
2017-Nov-02 22:58N 52°06' E 004°16'0 0.0
2017-Nov-02 22:25N 52°06' E 004°16'0 0.0
2017-Nov-02 21:55N 52°06' E 004°16'0 0.0
2017-Nov-02 21:28N 52°06' E 004°16'0 0.0
2017-Nov-02 20:58N 52°06' E 004°16'0 0.0
2017-Nov-02 20:28N 52°06' E 004°16'0 0.0
2017-Nov-02 19:58N 52°06' E 004°16'0 0.0
2017-Nov-02 19:28N 52°06' E 004°16'0 0.0
2017-Nov-02 18:55N 52°06' E 004°16'0 0.0
2017-Nov-02 18:28N 52°06' E 004°16'0 0.0
2017-Nov-02 17:58N 52°06' E 004°16'0 0.0
2017-Nov-02 17:28N 52°06' E 004°16'0 0.0
2017-Nov-02 16:55N 52°06' E 004°16'0 0.0
2017-Nov-02 16:25N 52°06' E 004°16'0 0.0
2017-Nov-02 15:58N 52°06' E 004°16'0 0.0
2017-Nov-02 15:28N 52°06' E 004°16'0 0.0
2017-Nov-02 14:58N 52°06' E 004°16'0 0.3
2017-Nov-02 14:30N 52°06' E 004°16'1 2.6
2017-Nov-02 14:00N 52°07' E 004°15'3 6.1
2017-Nov-02 13:30N 52°10' E 004°16'3 5.6
2017-Nov-02 13:00N 52°13' E 004°17'3 5.2
2017-Nov-02 12:30N 52°15' E 004°18'3 5.6
2017-Nov-02 12:00N 52°18' E 004°19'3 6.2
2017-Nov-02 11:30N 52°21' E 004°21'4 7.1
2017-Nov-02 11:00N 52°24' E 004°23'4 7.6
2017-Nov-02 10:30N 52°28' E 004°25'4 7.8
2017-Nov-02 10:00N 52°32' E 004°27'4 8.0
2017-Nov-02 09:30N 52°35' E 004°29'4 8.1
2017-Nov-02 09:00N 52°39' E 004°31'4 8.2
2017-Nov-02 08:30N 52°43' E 004°33'4 8.2
2017-Nov-02 08:00N 52°47' E 004°35'4 8.2
2017-Nov-02 07:30N 52°51' E 004°37'4 8.1
2017-Nov-02 07:00N 52°55' E 004°39'4 7.9
2017-Nov-02 06:30N 52°58' E 004°44'  
Track history (hours):
 
Tides and Currents Weather Stations Pressure Air Temp Water Temp Dewpoint Dewpoint Depression Visibility Wind Speed Wind Dir Waves Ship Positions

Urania (Netherlands)

Flagship of the Royal Netherlands Naval College.

Last reported at 2017-Nov-03 16:30 UTC. Time now 2017-Dec-16 01:51 UTC.
Position N 51°43' E 004°48'.
Warning: this ship's position is 42 days out of date.

Length 27 m; draft 2.6 m.

Type: Sailing vessel. MMSI: 245804000.

Date/timePositionNaut miles runAvg speedWind from/ knotsBaromVisibWave heightAir tempDewpointWater temp
2017-Nov-03 16:30N 51°43' E 004°48'0 0.2
2017-Nov-03 16:01N 51°43' E 004°48'4 7.6
2017-Nov-03 15:30N 51°43' E 004°42'3 5.6
2017-Nov-03 15:00N 51°46' E 004°44'4 7.3
2017-Nov-03 14:31N 51°48' E 004°49'2 3.7
2017-Nov-03 14:00N 51°49' E 004°51'4 7.0
2017-Nov-03 13:30N 51°49' E 004°46'2 3.6
2017-Nov-03 13:00N 51°49' E 004°43'2 3.1
2017-Nov-03 12:31N 51°49' E 004°40'1 2.9
2017-Nov-03 12:00N 51°48' E 004°39'3 6.1
2017-Nov-03 11:30N 51°49' E 004°34'3 5.3
2017-Nov-03 11:00N 51°50' E 004°30'3 6.0
2017-Nov-03 10:30N 51°51' E 004°25'3 5.8
2017-Nov-03 10:00N 51°51' E 004°21'3 5.6
2017-Nov-03 09:30N 51°54' E 004°18'3 5.8
2017-Nov-03 09:00N 51°55' E 004°14'3 6.0
2017-Nov-03 08:30N 51°57' E 004°10'3 5.7
2017-Nov-03 08:00N 51°59' E 004°06'3 5.3
2017-Nov-03 07:30N 52°00' E 004°03'4 8.5
2017-Nov-03 07:00N 52°03' E 004°08'4 8.3
2017-Nov-03 06:30N 52°06' E 004°13'2 4.1
2017-Nov-03 06:00N 52°06' E 004°16'0 0.0
2017-Nov-03 05:25N 52°06' E 004°16'0 0.0
2017-Nov-03 04:46N 52°06' E 004°16'0 0.0
2017-Nov-03 04:28N 52°06' E 004°16'0 0.0
2017-Nov-03 03:58N 52°06' E 004°16'0 0.0
2017-Nov-03 03:28N 52°06' E 004°16'0 0.0
2017-Nov-03 02:55N 52°06' E 004°16'0 0.0
2017-Nov-03 02:28N 52°06' E 004°16'0 0.0
2017-Nov-03 01:55N 52°06' E 004°16'0 0.0
2017-Nov-03 01:25N 52°06' E 004°16'0 0.0
2017-Nov-03 00:58N 52°06' E 004°16'0 0.0
2017-Nov-03 00:25N 52°06' E 004°16'0 0.0
2017-Nov-02 23:55N 52°06' E 004°16'0 0.0
2017-Nov-02 23:28N 52°06' E 004°16'0 0.0
2017-Nov-02 22:58N 52°06' E 004°16'0 0.0
2017-Nov-02 22:25N 52°06' E 004°16'0 0.0
2017-Nov-02 21:55N 52°06' E 004°16'0 0.0
2017-Nov-02 21:28N 52°06' E 004°16'0 0.0
2017-Nov-02 20:58N 52°06' E 004°16'0 0.0
2017-Nov-02 20:28N 52°06' E 004°16'0 0.0
2017-Nov-02 19:58N 52°06' E 004°16'0 0.0
2017-Nov-02 19:28N 52°06' E 004°16'0 0.0
2017-Nov-02 18:55N 52°06' E 004°16'0 0.0
2017-Nov-02 18:28N 52°06' E 004°16'0 0.0
2017-Nov-02 17:58N 52°06' E 004°16'0 0.0
2017-Nov-02 17:28N 52°06' E 004°16'0 0.0
2017-Nov-02 16:55N 52°06' E 004°16'0 0.0
2017-Nov-02 16:25N 52°06' E 004°16'0 0.0
2017-Nov-02 15:58N 52°06' E 004°16'0 0.0
2017-Nov-02 15:28N 52°06' E 004°16'0 0.0
2017-Nov-02 14:58N 52°06' E 004°16'0 0.3
2017-Nov-02 14:30N 52°06' E 004°16'1 2.6
2017-Nov-02 14:00N 52°07' E 004°15'3 6.1
2017-Nov-02 13:30N 52°10' E 004°16'3 5.6
2017-Nov-02 13:00N 52°13' E 004°17'3 5.2
2017-Nov-02 12:30N 52°15' E 004°18'3 5.6
2017-Nov-02 12:00N 52°18' E 004°19'3 6.2
2017-Nov-02 11:30N 52°21' E 004°21'4 7.1
2017-Nov-02 11:00N 52°24' E 004°23'4 7.6
2017-Nov-02 10:30N 52°28' E 004°25'4 7.8
2017-Nov-02 10:00N 52°32' E 004°27'4 8.0
2017-Nov-02 09:30N 52°35' E 004°29'4 8.1
2017-Nov-02 09:00N 52°39' E 004°31'4 8.2
2017-Nov-02 08:30N 52°43' E 004°33'4 8.2
2017-Nov-02 08:00N 52°47' E 004°35'4 8.2
2017-Nov-02 07:30N 52°51' E 004°37'4 8.1
2017-Nov-02 07:00N 52°55' E 004°39'4 7.9
2017-Nov-02 06:30N 52°58' E 004°44'  

Dump ship's entire track history